sensor_id;sensor_type;location;lat;lon;timestamp;pressure;altitude;pressure_sealevel;temperature;humidity
74334;BME280;62753;40.394;-80.022;2023-06-14T00:00:33;96315.91;;;21.46;42.24
74334;BME280;62753;40.394;-80.022;2023-06-14T00:02:58;96311.87;;;20.94;43.84
74334;BME280;62753;40.394;-80.022;2023-06-14T00:05:23;96309.80;;;21.16;42.99
74334;BME280;62753;40.394;-80.022;2023-06-14T00:07:49;96313.45;;;21.09;44.29
74334;BME280;62753;40.394;-80.022;2023-06-14T00:10:14;96309.55;;;20.75;43.64
74334;BME280;62753;40.394;-80.022;2023-06-14T00:12:40;96308.08;;;20.84;44.32
74334;BME280;62753;40.394;-80.022;2023-06-14T00:15:06;96308.77;;;20.80;43.98
74334;BME280;62753;40.394;-80.022;2023-06-14T00:17:30;96303.34;;;20.91;43.32
74334;BME280;62753;40.394;-80.022;2023-06-14T00:19:55;96298.96;;;20.80;43.75
74334;BME280;62753;40.394;-80.022;2023-06-14T00:22:20;96295.35;;;20.78;43.58
74334;BME280;62753;40.394;-80.022;2023-06-14T00:24:46;96289.48;;;21.05;42.99
74334;BME280;62753;40.394;-80.022;2023-06-14T00:27:11;96289.92;;;21.26;42.40
74334;BME280;62753;40.394;-80.022;2023-06-14T00:29:37;96296.02;;;21.07;42.58
74334;BME280;62753;40.394;-80.022;2023-06-14T00:32:02;96299.79;;;21.40;42.67
74334;BME280;62753;40.394;-80.022;2023-06-14T00:34:28;96306.26;;;21.56;42.01
74334;BME280;62753;40.394;-80.022;2023-06-14T00:36:53;96310.27;;;21.10;41.77
74334;BME280;62753;40.394;-80.022;2023-06-14T00:39:18;96312.33;;;21.44;42.07
74334;BME280;62753;40.394;-80.022;2023-06-14T00:41:49;96300.71;;;20.64;43.28
74334;BME280;62753;40.394;-80.022;2023-06-14T00:44:10;96298.66;;;20.47;44.00
74334;BME280;62753;40.394;-80.022;2023-06-14T00:46:35;96292.82;;;20.68;43.01
74334;BME280;62753;40.394;-80.022;2023-06-14T00:49:00;96287.73;;;21.46;42.65
74334;BME280;62753;40.394;-80.022;2023-06-14T00:51:26;96287.64;;;21.64;42.40
74334;BME280;62753;40.394;-80.022;2023-06-14T00:53:51;96284.65;;;21.77;41.85
74334;BME280;62753;40.394;-80.022;2023-06-14T00:56:18;96276.62;;;21.51;41.04
74334;BME280;62753;40.394;-80.022;2023-06-14T00:58:43;96272.56;;;21.41;42.15
74334;BME280;62753;40.394;-80.022;2023-06-14T01:01:08;96274.33;;;21.26;41.70
74334;BME280;62753;40.394;-80.022;2023-06-14T01:03:34;96277.90;;;21.63;41.63
74334;BME280;62753;40.394;-80.022;2023-06-14T01:06:12;96274.86;;;20.78;42.19
74334;BME280;62753;40.394;-80.022;2023-06-14T01:08:28;96276.14;;;21.38;41.30
74334;BME280;62753;40.394;-80.022;2023-06-14T01:10:53;96270.70;;;20.91;43.06
74334;BME280;62753;40.394;-80.022;2023-06-14T01:13:19;96267.03;;;21.28;42.47
74334;BME280;62753;40.394;-80.022;2023-06-14T01:15:41;96262.01;;;21.29;42.17
74334;BME280;62753;40.394;-80.022;2023-06-14T01:18:07;96259.38;;;21.68;41.42
74334;BME280;62753;40.394;-80.022;2023-06-14T01:20:33;96261.96;;;20.85;42.81
74334;BME280;62753;40.394;-80.022;2023-06-14T01:22:58;96265.48;;;21.69;41.76
74334;BME280;62753;40.394;-80.022;2023-06-14T01:25:23;96265.05;;;21.78;40.78
74334;BME280;62753;40.394;-80.022;2023-06-14T01:27:50;96265.32;;;21.68;41.23
74334;BME280;62753;40.394;-80.022;2023-06-14T01:30:14;96266.96;;;21.01;42.79
74334;BME280;62753;40.394;-80.022;2023-06-14T01:32:40;96265.57;;;20.31;42.42
74334;BME280;62753;40.394;-80.022;2023-06-14T01:35:06;96263.59;;;20.82;42.93
74334;BME280;62753;40.394;-80.022;2023-06-14T01:37:31;96263.75;;;20.48;43.06
74334;BME280;62753;40.394;-80.022;2023-06-14T01:39:56;96261.46;;;20.61;42.78
74334;BME280;62753;40.394;-80.022;2023-06-14T01:42:23;96265.87;;;20.40;43.61
74334;BME280;62753;40.394;-80.022;2023-06-14T01:44:47;96265.30;;;20.16;44.19
74334;BME280;62753;40.394;-80.022;2023-06-14T01:47:13;96266.76;;;20.24;43.92
74334;BME280;62753;40.394;-80.022;2023-06-14T01:49:39;96268.15;;;20.32;44.39
74334;BME280;62753;40.394;-80.022;2023-06-14T01:52:03;96267.19;;;20.39;44.03
74334;BME280;62753;40.394;-80.022;2023-06-14T01:54:28;96270.47;;;20.22;43.92
74334;BME280;62753;40.394;-80.022;2023-06-14T01:56:53;96269.16;;;19.61;45.77
74334;BME280;62753;40.394;-80.022;2023-06-14T01:59:19;96266.49;;;19.47;46.14
74334;BME280;62753;40.394;-80.022;2023-06-14T02:01:45;96266.91;;;19.74;45.43
74334;BME280;62753;40.394;-80.022;2023-06-14T02:04:09;96271.25;;;19.98;44.40
74334;BME280;62753;40.394;-80.022;2023-06-14T02:06:36;96262.45;;;20.19;44.40
74334;BME280;62753;40.394;-80.022;2023-06-14T02:09:02;96262.65;;;20.00;45.18
74334;BME280;62753;40.394;-80.022;2023-06-14T02:11:27;96252.45;;;19.68;44.91
74334;BME280;62753;40.394;-80.022;2023-06-14T02:13:53;96255.81;;;20.11;44.70
74334;BME280;62753;40.394;-80.022;2023-06-14T02:16:18;96263.93;;;20.13;44.83
74334;BME280;62753;40.394;-80.022;2023-06-14T02:18:44;96262.29;;;20.62;43.45
74334;BME280;62753;40.394;-80.022;2023-06-14T02:21:09;96258.75;;;20.46;43.37
74334;BME280;62753;40.394;-80.022;2023-06-14T02:23:35;96256.04;;;20.49;43.68
74334;BME280;62753;40.394;-80.022;2023-06-14T02:26:00;96254.77;;;20.76;43.55
74334;BME280;62753;40.394;-80.022;2023-06-14T02:28:26;96251.41;;;20.88;43.26
74334;BME280;62753;40.394;-80.022;2023-06-14T02:30:52;96247.09;;;20.35;43.48
74334;BME280;62753;40.394;-80.022;2023-06-14T02:33:18;96239.69;;;20.76;43.46
74334;BME280;62753;40.394;-80.022;2023-06-14T02:35:43;96242.14;;;20.47;43.44
74334;BME280;62753;40.394;-80.022;2023-06-14T02:38:08;96245.28;;;20.78;42.78
74334;BME280;62753;40.394;-80.022;2023-06-14T02:40:34;96235.83;;;20.56;43.63
74334;BME280;62753;40.394;-80.022;2023-06-14T02:42:59;96228.57;;;20.30;43.97
74334;BME280;62753;40.394;-80.022;2023-06-14T02:45:24;96227.17;;;20.43;43.98
74334;BME280;62753;40.394;-80.022;2023-06-14T02:47:50;96225.28;;;20.19;43.65
74334;BME280;62753;40.394;-80.022;2023-06-14T02:50:15;96220.31;;;20.06;44.89
74334;BME280;62753;40.394;-80.022;2023-06-14T02:52:41;96216.54;;;19.75;45.55
74334;BME280;62753;40.394;-80.022;2023-06-14T02:55:07;96219.64;;;20.31;45.06
74334;BME280;62753;40.394;-80.022;2023-06-14T02:57:32;96210.89;;;20.59;44.69
74334;BME280;62753;40.394;-80.022;2023-06-14T02:59:57;96206.88;;;20.36;43.92
74334;BME280;62753;40.394;-80.022;2023-06-14T03:02:23;96200.96;;;20.06;44.94
74334;BME280;62753;40.394;-80.022;2023-06-14T03:04:48;96199.57;;;19.96;45.74
74334;BME280;62753;40.394;-80.022;2023-06-14T03:07:14;96194.15;;;20.06;45.31
74334;BME280;62753;40.394;-80.022;2023-06-14T03:09:40;96185.37;;;19.43;46.31
74334;BME280;62753;40.394;-80.022;2023-06-14T03:12:06;96179.16;;;19.03;46.98
74334;BME280;62753;40.394;-80.022;2023-06-14T03:14:31;96174.82;;;19.09;48.15
74334;BME280;62753;40.394;-80.022;2023-06-14T03:16:56;96163.36;;;18.39;49.78
74334;BME280;62753;40.394;-80.022;2023-06-14T03:19:21;96161.39;;;18.54;50.20
74334;BME280;62753;40.394;-80.022;2023-06-14T03:21:46;96153.36;;;18.33;50.21
74334;BME280;62753;40.394;-80.022;2023-06-14T03:24:13;96146.44;;;18.02;51.34
74334;BME280;62753;40.394;-80.022;2023-06-14T03:26:37;96137.30;;;18.32;50.57
74334;BME280;62753;40.394;-80.022;2023-06-14T03:29:03;96129.81;;;17.60;52.53
74334;BME280;62753;40.394;-80.022;2023-06-14T03:31:29;96118.97;;;18.36;51.08
74334;BME280;62753;40.394;-80.022;2023-06-14T03:33:54;96119.18;;;17.84;52.05
74334;BME280;62753;40.394;-80.022;2023-06-14T03:36:20;96119.82;;;17.62;51.90
74334;BME280;62753;40.394;-80.022;2023-06-14T03:38:46;96120.04;;;18.14;51.16
74334;BME280;62753;40.394;-80.022;2023-06-14T03:41:11;96114.20;;;17.32;52.63
74334;BME280;62753;40.394;-80.022;2023-06-14T03:43:37;96105.50;;;17.84;52.68
74334;BME280;62753;40.394;-80.022;2023-06-14T03:46:02;96098.56;;;18.34;50.75
74334;BME280;62753;40.394;-80.022;2023-06-14T03:48:27;96100.79;;;18.23;50.50
74334;BME280;62753;40.394;-80.022;2023-06-14T03:50:52;96096.15;;;18.94;49.56
74334;BME280;62753;40.394;-80.022;2023-06-14T03:53:18;96093.18;;;18.55;50.20
74334;BME280;62753;40.394;-80.022;2023-06-14T03:55:43;96087.58;;;18.42;51.17
74334;BME280;62753;40.394;-80.022;2023-06-14T03:58:08;96086.86;;;18.02;51.54
74334;BME280;62753;40.394;-80.022;2023-06-14T04:00:34;96079.29;;;18.13;51.54
74334;BME280;62753;40.394;-80.022;2023-06-14T04:03:00;96072.29;;;18.21;50.72
74334;BME280;62753;40.394;-80.022;2023-06-14T04:05:25;96067.68;;;19.06;50.04
74334;BME280;62753;40.394;-80.022;2023-06-14T04:07:49;96068.18;;;18.40;50.11
74334;BME280;62753;40.394;-80.022;2023-06-14T04:10:16;96061.57;;;17.88;52.19
74334;BME280;62753;40.394;-80.022;2023-06-14T04:12:41;96062.80;;;17.57;52.20
74334;BME280;62753;40.394;-80.022;2023-06-14T04:15:08;96051.16;;;18.43;51.03
74334;BME280;62753;40.394;-80.022;2023-06-14T04:17:32;96047.34;;;18.80;49.53
74334;BME280;62753;40.394;-80.022;2023-06-14T04:19:58;96038.71;;;18.01;51.06
74334;BME280;62753;40.394;-80.022;2023-06-14T04:22:23;96032.38;;;18.12;50.68
74334;BME280;62753;40.394;-80.022;2023-06-14T04:24:48;96022.80;;;18.65;49.96
74334;BME280;62753;40.394;-80.022;2023-06-14T04:27:14;96019.37;;;18.71;50.02
74334;BME280;62753;40.394;-80.022;2023-06-14T04:29:39;96016.24;;;19.23;48.12
74334;BME280;62753;40.394;-80.022;2023-06-14T04:32:05;96013.41;;;19.13;48.67
74334;BME280;62753;40.394;-80.022;2023-06-14T04:34:30;96008.34;;;18.75;48.73
74334;BME280;62753;40.394;-80.022;2023-06-14T04:36:56;95994.28;;;19.28;47.92
74334;BME280;62753;40.394;-80.022;2023-06-14T04:39:22;95988.38;;;18.84;48.67
74334;BME280;62753;40.394;-80.022;2023-06-14T04:41:47;95978.54;;;18.77;49.04
74334;BME280;62753;40.394;-80.022;2023-06-14T04:44:12;95973.77;;;19.04;48.59
74334;BME280;62753;40.394;-80.022;2023-06-14T04:46:37;95964.11;;;19.08;48.27
74334;BME280;62753;40.394;-80.022;2023-06-14T04:49:03;95954.90;;;18.74;49.17
74334;BME280;62753;40.394;-80.022;2023-06-14T04:51:28;95948.79;;;18.92;49.08
74334;BME280;62753;40.394;-80.022;2023-06-14T04:53:53;95940.58;;;19.19;48.67
74334;BME280;62753;40.394;-80.022;2023-06-14T04:56:19;95934.11;;;18.89;48.96
74334;BME280;62753;40.394;-80.022;2023-06-14T04:58:44;95918.07;;;19.04;49.03
74334;BME280;62753;40.394;-80.022;2023-06-14T05:01:10;95910.90;;;18.55;48.89
74334;BME280;62753;40.394;-80.022;2023-06-14T05:03:35;95902.73;;;18.58;49.71
74334;BME280;62753;40.394;-80.022;2023-06-14T05:06:01;95896.20;;;18.76;49.31
74334;BME280;62753;40.394;-80.022;2023-06-14T05:08:26;95887.18;;;17.24;53.59
74334;BME280;62753;40.394;-80.022;2023-06-14T05:10:52;95881.55;;;16.85;56.23
74334;BME280;62753;40.394;-80.022;2023-06-14T05:13:18;95878.90;;;15.79;59.15
74334;BME280;62753;40.394;-80.022;2023-06-14T05:15:43;95869.08;;;16.08;57.64
74334;BME280;62753;40.394;-80.022;2023-06-14T05:18:08;95857.13;;;17.41;54.82
74334;BME280;62753;40.394;-80.022;2023-06-14T05:20:33;95878.63;;;17.15;54.45
74334;BME280;62753;40.394;-80.022;2023-06-14T05:22:58;95898.85;;;17.16;54.75
74334;BME280;62753;40.394;-80.022;2023-06-14T05:25:24;95879.94;;;17.75;52.69
74334;BME280;62753;40.394;-80.022;2023-06-14T05:27:49;95859.80;;;17.03;54.28
74334;BME280;62753;40.394;-80.022;2023-06-14T05:30:15;95854.87;;;16.50;56.50
74334;BME280;62753;40.394;-80.022;2023-06-14T05:32:40;95866.47;;;16.87;55.24
74334;BME280;62753;40.394;-80.022;2023-06-14T05:35:06;95883.96;;;17.86;52.30
74334;BME280;62753;40.394;-80.022;2023-06-14T05:37:30;95875.02;;;17.86;51.65
74334;BME280;62753;40.394;-80.022;2023-06-14T05:39:56;95851.57;;;18.62;50.87
74334;BME280;62753;40.394;-80.022;2023-06-14T05:42:21;95836.51;;;16.96;54.22
74334;BME280;62753;40.394;-80.022;2023-06-14T05:44:47;95864.17;;;17.59;53.90
74334;BME280;62753;40.394;-80.022;2023-06-14T05:47:12;95868.36;;;17.79;53.01
74334;BME280;62753;40.394;-80.022;2023-06-14T05:49:37;95870.31;;;17.55;53.13
74334;BME280;62753;40.394;-80.022;2023-06-14T05:52:04;95858.46;;;17.35;52.46
74334;BME280;62753;40.394;-80.022;2023-06-14T05:54:29;95855.52;;;18.57;51.16
74334;BME280;62753;40.394;-80.022;2023-06-14T05:56:54;95847.82;;;17.08;53.13
74334;BME280;62753;40.394;-80.022;2023-06-14T05:59:19;95836.99;;;18.00;52.43
74334;BME280;62753;40.394;-80.022;2023-06-14T06:01:45;95872.98;;;17.87;52.69
74334;BME280;62753;40.394;-80.022;2023-06-14T06:04:09;95880.44;;;18.40;52.09
74334;BME280;62753;40.394;-80.022;2023-06-14T06:06:35;95871.30;;;18.05;52.62
74334;BME280;62753;40.394;-80.022;2023-06-14T06:09:00;95861.98;;;17.31;54.36
74334;BME280;62753;40.394;-80.022;2023-06-14T06:11:25;95855.27;;;17.86;53.57
74334;BME280;62753;40.394;-80.022;2023-06-14T06:13:50;95856.65;;;17.86;53.21
74334;BME280;62753;40.394;-80.022;2023-06-14T06:16:16;95860.18;;;17.91;53.77
74334;BME280;62753;40.394;-80.022;2023-06-14T06:18:41;95857.01;;;17.58;54.15
74334;BME280;62753;40.394;-80.022;2023-06-14T06:21:07;95849.44;;;17.45;54.53
74334;BME280;62753;40.394;-80.022;2023-06-14T06:23:32;95848.06;;;17.49;53.91
74334;BME280;62753;40.394;-80.022;2023-06-14T06:25:57;95836.63;;;18.47;52.09
74334;BME280;62753;40.394;-80.022;2023-06-14T06:28:23;95821.97;;;18.19;51.98
74334;BME280;62753;40.394;-80.022;2023-06-14T06:30:48;95836.39;;;18.33;51.64
74334;BME280;62753;40.394;-80.022;2023-06-14T06:33:14;95833.33;;;18.34;51.72
74334;BME280;62753;40.394;-80.022;2023-06-14T06:35:39;95835.45;;;18.98;50.44
74334;BME280;62753;40.394;-80.022;2023-06-14T06:38:04;95832.22;;;19.03;49.60
74334;BME280;62753;40.394;-80.022;2023-06-14T06:40:30;95829.81;;;18.78;50.05
74334;BME280;62753;40.394;-80.022;2023-06-14T06:42:56;95842.10;;;19.02;50.32
74334;BME280;62753;40.394;-80.022;2023-06-14T06:45:21;95831.87;;;19.01;49.47
74334;BME280;62753;40.394;-80.022;2023-06-14T06:47:47;95820.82;;;19.10;50.58
74334;BME280;62753;40.394;-80.022;2023-06-14T06:50:12;95813.59;;;19.56;49.68
74334;BME280;62753;40.394;-80.022;2023-06-14T06:52:37;95809.87;;;19.19;50.04
74334;BME280;62753;40.394;-80.022;2023-06-14T06:55:03;95805.90;;;19.06;50.02
74334;BME280;62753;40.394;-80.022;2023-06-14T06:57:28;95803.02;;;18.75;50.48
74334;BME280;62753;40.394;-80.022;2023-06-14T06:59:53;95788.93;;;18.31;51.16
74334;BME280;62753;40.394;-80.022;2023-06-14T07:02:20;95785.06;;;19.11;50.11
74334;BME280;62753;40.394;-80.022;2023-06-14T07:04:44;95774.12;;;18.60;50.76
74334;BME280;62753;40.394;-80.022;2023-06-14T07:07:10;95768.37;;;18.58;51.20
74334;BME280;62753;40.394;-80.022;2023-06-14T07:09:35;95761.24;;;19.31;49.74
74334;BME280;62753;40.394;-80.022;2023-06-14T07:12:00;95762.63;;;19.12;48.97
74334;BME280;62753;40.394;-80.022;2023-06-14T07:14:26;95751.85;;;19.61;48.54
74334;BME280;62753;40.394;-80.022;2023-06-14T07:16:52;95748.43;;;19.28;48.50
74334;BME280;62753;40.394;-80.022;2023-06-14T07:19:17;95750.05;;;18.94;50.39
74334;BME280;62753;40.394;-80.022;2023-06-14T07:21:42;95740.32;;;19.38;49.17
74334;BME280;62753;40.394;-80.022;2023-06-14T07:24:08;95735.50;;;19.79;48.41
74334;BME280;62753;40.394;-80.022;2023-06-14T07:26:33;95727.58;;;18.72;49.67
74334;BME280;62753;40.394;-80.022;2023-06-14T07:28:58;95718.87;;;18.58;50.60
74334;BME280;62753;40.394;-80.022;2023-06-14T07:31:23;95718.59;;;18.79;50.22
74334;BME280;62753;40.394;-80.022;2023-06-14T07:33:49;95711.91;;;18.73;50.34
74334;BME280;62753;40.394;-80.022;2023-06-14T07:36:14;95705.19;;;19.23;49.79
74334;BME280;62753;40.394;-80.022;2023-06-14T07:38:39;95704.56;;;19.46;49.01
74334;BME280;62753;40.394;-80.022;2023-06-14T07:41:04;95690.69;;;18.96;50.12
74334;BME280;62753;40.394;-80.022;2023-06-14T07:43:30;95681.74;;;18.81;50.08
74334;BME280;62753;40.394;-80.022;2023-06-14T07:45:55;95685.75;;;18.82;51.15
74334;BME280;62753;40.394;-80.022;2023-06-14T07:48:21;95684.75;;;18.74;50.52
74334;BME280;62753;40.394;-80.022;2023-06-14T07:50:46;95666.35;;;18.60;50.78
74334;BME280;62753;40.394;-80.022;2023-06-14T07:53:12;95664.56;;;18.15;51.99
74334;BME280;62753;40.394;-80.022;2023-06-14T07:55:37;95659.15;;;18.79;51.37
74334;BME280;62753;40.394;-80.022;2023-06-14T07:58:02;95651.07;;;18.77;50.91
74334;BME280;62753;40.394;-80.022;2023-06-14T08:00:27;95639.85;;;18.97;50.12
74334;BME280;62753;40.394;-80.022;2023-06-14T08:02:58;95638.03;;;17.37;53.63
74334;BME280;62753;40.394;-80.022;2023-06-14T08:05:19;95621.44;;;17.59;53.33
74334;BME280;62753;40.394;-80.022;2023-06-14T08:07:44;95618.54;;;18.18;52.48
74334;BME280;62753;40.394;-80.022;2023-06-14T08:10:10;95615.04;;;18.46;52.00
74334;BME280;62753;40.394;-80.022;2023-06-14T08:12:37;95611.09;;;18.64;51.38
74334;BME280;62753;40.394;-80.022;2023-06-14T08:15:02;95598.47;;;18.30;52.54
74334;BME280;62753;40.394;-80.022;2023-06-14T08:17:27;95589.63;;;17.48;53.91
74334;BME280;62753;40.394;-80.022;2023-06-14T08:19:52;95587.07;;;17.33;54.31
74334;BME280;62753;40.394;-80.022;2023-06-14T08:22:18;95580.28;;;17.72;54.41
74334;BME280;62753;40.394;-80.022;2023-06-14T08:24:42;95564.61;;;17.72;54.73
74334;BME280;62753;40.394;-80.022;2023-06-14T08:27:08;95561.53;;;17.04;55.97
74334;BME280;62753;40.394;-80.022;2023-06-14T08:29:38;95558.49;;;17.44;55.26
74334;BME280;62753;40.394;-80.022;2023-06-14T08:31:59;95550.31;;;16.98;55.97
74334;BME280;62753;40.394;-80.022;2023-06-14T08:34:24;95541.06;;;17.47;54.76
74334;BME280;62753;40.394;-80.022;2023-06-14T08:36:50;95545.56;;;17.31;55.46
74334;BME280;62753;40.394;-80.022;2023-06-14T08:39:15;95547.37;;;17.48;54.58
74334;BME280;62753;40.394;-80.022;2023-06-14T08:41:41;95552.01;;;18.00;53.74
74334;BME280;62753;40.394;-80.022;2023-06-14T08:44:05;95539.85;;;17.91;53.25
74334;BME280;62753;40.394;-80.022;2023-06-14T08:46:32;95526.13;;;17.19;55.19
74334;BME280;62753;40.394;-80.022;2023-06-14T08:48:56;95547.62;;;17.61;53.74
74334;BME280;62753;40.394;-80.022;2023-06-14T08:51:22;95544.98;;;18.07;53.25
74334;BME280;62753;40.394;-80.022;2023-06-14T08:53:49;95536.89;;;18.57;52.09
74334;BME280;62753;40.394;-80.022;2023-06-14T08:56:12;95541.32;;;18.13;52.21
74334;BME280;62753;40.394;-80.022;2023-06-14T08:58:37;95539.67;;;18.76;52.10
74334;BME280;62753;40.394;-80.022;2023-06-14T09:01:03;95535.03;;;18.11;52.33
74334;BME280;62753;40.394;-80.022;2023-06-14T09:03:28;95537.12;;;18.53;51.23
74334;BME280;62753;40.394;-80.022;2023-06-14T09:05:54;95533.90;;;18.68;50.51
74334;BME280;62753;40.394;-80.022;2023-06-14T09:08:18;95531.93;;;18.97;49.79
74334;BME280;62753;40.394;-80.022;2023-06-14T09:10:50;95522.32;;;18.93;50.45
74334;BME280;62753;40.394;-80.022;2023-06-14T09:13:10;95522.78;;;19.00;50.26
74334;BME280;62753;40.394;-80.022;2023-06-14T09:15:36;95527.79;;;18.93;49.81
74334;BME280;62753;40.394;-80.022;2023-06-14T09:18:02;95522.94;;;18.61;50.94
74334;BME280;62753;40.394;-80.022;2023-06-14T09:20:25;95529.24;;;18.44;51.83
74334;BME280;62753;40.394;-80.022;2023-06-14T09:22:51;95527.27;;;18.14;52.28
74334;BME280;62753;40.394;-80.022;2023-06-14T09:25:16;95522.45;;;18.76;50.22
74334;BME280;62753;40.394;-80.022;2023-06-14T09:27:42;95521.98;;;18.58;51.06
74334;BME280;62753;40.394;-80.022;2023-06-14T09:30:09;95523.69;;;18.59;50.97
74334;BME280;62753;40.394;-80.022;2023-06-14T09:32:32;95531.58;;;18.51;51.45
74334;BME280;62753;40.394;-80.022;2023-06-14T09:34:58;95526.86;;;18.85;50.76
74334;BME280;62753;40.394;-80.022;2023-06-14T09:37:29;95520.10;;;19.23;50.12
74334;BME280;62753;40.394;-80.022;2023-06-14T09:39:50;95515.79;;;18.65;52.33
74334;BME280;62753;40.394;-80.022;2023-06-14T09:42:17;95511.08;;;18.45;52.44
74334;BME280;62753;40.394;-80.022;2023-06-14T09:44:39;95507.26;;;18.05;52.82
74334;BME280;62753;40.394;-80.022;2023-06-14T09:47:05;95512.63;;;18.16;52.58
74334;BME280;62753;40.394;-80.022;2023-06-14T09:49:30;95509.64;;;18.14;52.44
74334;BME280;62753;40.394;-80.022;2023-06-14T09:51:56;95503.89;;;18.65;52.08
74334;BME280;62753;40.394;-80.022;2023-06-14T09:54:22;95497.91;;;18.21;52.83
74334;BME280;62753;40.394;-80.022;2023-06-14T09:56:46;95491.26;;;18.47;52.24
74334;BME280;62753;40.394;-80.022;2023-06-14T09:59:13;95492.45;;;18.76;50.87
74334;BME280;62753;40.394;-80.022;2023-06-14T10:01:41;95503.26;;;18.85;50.58
74334;BME280;62753;40.394;-80.022;2023-06-14T10:04:03;95485.54;;;18.90;51.73
74334;BME280;62753;40.394;-80.022;2023-06-14T10:06:28;95489.56;;;18.47;52.94
74334;BME280;62753;40.394;-80.022;2023-06-14T10:08:52;95490.34;;;18.32;52.15
74334;BME280;62753;40.394;-80.022;2023-06-14T10:11:17;95498.25;;;18.47;52.26
74334;BME280;62753;40.394;-80.022;2023-06-14T10:13:42;95488.26;;;18.20;52.88
74334;BME280;62753;40.394;-80.022;2023-06-14T10:16:12;95498.46;;;18.16;52.22
74334;BME280;62753;40.394;-80.022;2023-06-14T10:18:42;95493.25;;;18.32;52.02
74334;BME280;62753;40.394;-80.022;2023-06-14T10:21:05;95496.47;;;17.85;53.79
74334;BME280;62753;40.394;-80.022;2023-06-14T10:23:25;95501.64;;;18.19;53.78
74334;BME280;62753;40.394;-80.022;2023-06-14T10:25:51;95543.85;;;18.88;52.65
74334;BME280;62753;40.394;-80.022;2023-06-14T10:28:17;95556.96;;;17.35;55.37
74334;BME280;62753;40.394;-80.022;2023-06-14T10:30:40;95565.21;;;18.50;53.42
74334;BME280;62753;40.394;-80.022;2023-06-14T10:33:07;95564.56;;;18.38;51.84
74334;BME280;62753;40.394;-80.022;2023-06-14T10:35:31;95569.40;;;18.80;51.44
74334;BME280;62753;40.394;-80.022;2023-06-14T10:38:08;95572.68;;;18.66;51.33
74334;BME280;62753;40.394;-80.022;2023-06-14T10:40:30;95582.44;;;18.77;51.16
74334;BME280;62753;40.394;-80.022;2023-06-14T10:42:52;95598.91;;;18.70;51.39
74334;BME280;62753;40.394;-80.022;2023-06-14T10:45:13;95602.99;;;18.27;52.22
74334;BME280;62753;40.394;-80.022;2023-06-14T10:47:38;95604.63;;;18.26;51.64
74334;BME280;62753;40.394;-80.022;2023-06-14T10:50:06;95611.34;;;17.86;53.23
74334;BME280;62753;40.394;-80.022;2023-06-14T10:52:31;95615.99;;;18.23;52.64
74334;BME280;62753;40.394;-80.022;2023-06-14T10:55:02;95621.10;;;18.13;52.53
74334;BME280;62753;40.394;-80.022;2023-06-14T10:57:19;95622.76;;;17.66;52.50
74334;BME280;62753;40.394;-80.022;2023-06-14T10:59:46;95634.89;;;18.14;51.91
74334;BME280;62753;40.394;-80.022;2023-06-14T11:02:26;95637.54;;;17.60;53.06
74334;BME280;62753;40.394;-80.022;2023-06-14T11:04:46;95648.62;;;17.54;53.26
74334;BME280;62753;40.394;-80.022;2023-06-14T11:09:47;95657.61;;;17.78;52.03
74334;BME280;62753;40.394;-80.022;2023-06-14T11:11:51;95663.21;;;17.14;53.25
74334;BME280;62753;40.394;-80.022;2023-06-14T11:14:16;95669.59;;;17.71;53.33
74334;BME280;62753;40.394;-80.022;2023-06-14T11:16:41;95672.06;;;17.63;52.61
74334;BME280;62753;40.394;-80.022;2023-06-14T11:19:07;95677.58;;;17.54;52.36
74334;BME280;62753;40.394;-80.022;2023-06-14T11:21:32;95684.38;;;17.10;53.46
74334;BME280;62753;40.394;-80.022;2023-06-14T11:23:57;95688.21;;;17.65;52.50
74334;BME280;62753;40.394;-80.022;2023-06-14T11:26:26;95693.14;;;18.12;51.06
74334;BME280;62753;40.394;-80.022;2023-06-14T11:28:48;95695.20;;;18.68;49.76
74334;BME280;62753;40.394;-80.022;2023-06-14T11:31:13;95694.35;;;17.14;51.62
74334;BME280;62753;40.394;-80.022;2023-06-14T11:33:38;95697.86;;;18.01;51.55
74334;BME280;62753;40.394;-80.022;2023-06-14T11:36:05;95706.92;;;18.16;50.56
74334;BME280;62753;40.394;-80.022;2023-06-14T11:38:29;95716.32;;;18.20;50.54
74334;BME280;62753;40.394;-80.022;2023-06-14T11:40:59;95721.99;;;17.75;51.95
74334;BME280;62753;40.394;-80.022;2023-06-14T11:43:20;95716.17;;;18.11;51.37
74334;BME280;62753;40.394;-80.022;2023-06-14T11:45:48;95724.31;;;17.19;52.90
74334;BME280;62753;40.394;-80.022;2023-06-14T11:48:10;95732.50;;;16.98;53.45
74334;BME280;62753;40.394;-80.022;2023-06-14T11:50:38;95737.25;;;16.90;55.25
74334;BME280;62753;40.394;-80.022;2023-06-14T11:53:01;95737.06;;;17.81;52.45
74334;BME280;62753;40.394;-80.022;2023-06-14T11:55:26;95735.67;;;18.13;51.49
74334;BME280;62753;40.394;-80.022;2023-06-14T11:57:52;95736.32;;;19.07;49.63
74334;BME280;62753;40.394;-80.022;2023-06-14T12:00:17;95741.75;;;18.20;50.72
74334;BME280;62753;40.394;-80.022;2023-06-14T12:02:52;95744.41;;;17.64;51.93
74334;BME280;62753;40.394;-80.022;2023-06-14T12:05:08;95759.04;;;17.24;53.11
74334;BME280;62753;40.394;-80.022;2023-06-14T12:07:32;95762.05;;;17.25;54.02
74334;BME280;62753;40.394;-80.022;2023-06-14T12:10:06;95759.91;;;17.16;53.08
74334;BME280;62753;40.394;-80.022;2023-06-14T12:12:22;95769.35;;;17.25;53.10
74334;BME280;62753;40.394;-80.022;2023-06-14T12:14:48;95779.17;;;18.17;50.82
74334;BME280;62753;40.394;-80.022;2023-06-14T12:17:13;95801.61;;;17.97;50.86
74334;BME280;62753;40.394;-80.022;2023-06-14T12:19:44;95789.63;;;17.73;51.98
74334;BME280;62753;40.394;-80.022;2023-06-14T12:22:05;95802.63;;;17.88;50.87
74334;BME280;62753;40.394;-80.022;2023-06-14T12:24:29;95794.52;;;17.66;52.09
74334;BME280;62753;40.394;-80.022;2023-06-14T12:26:56;95800.19;;;18.18;50.44
74334;BME280;62753;40.394;-80.022;2023-06-14T12:29:20;95807.30;;;18.40;50.74
74334;BME280;62753;40.394;-80.022;2023-06-14T12:31:44;95813.75;;;17.90;49.70